Terminal Aerodrome Forecast
Issued by NWS Wilmington, OH

Current Version | Previous Version | Graphics & Text | Print | Product List | Glossary On
Versions: 1 2 3 4 5 6 7 8 9 10 11 12 13 14 15 16 17 18
143
FTUS41 KILN 291751
TAFILN
TAF
KILN 291751Z 2918/3018 09008KT P6SM BKN019
     FM292100 06009KT P6SM SCT250
     FM300500 09008KT P6SM BKN100
     FM301000 10011KT P6SM BKN025
     FM301300 11011KT P6SM BKN035
     FM301600 17013G24KT P6SM BKN035=

USA.gov is the U.S. government's official web portal to all federal, state and local government web resources and services.